createdAt,value
2023-08-24T00:00:18.067Z,64219.35
2023-08-24T00:01:20.026Z,64231.93
2023-08-24T00:02:22.129Z,64241.95
2023-08-24T00:03:24.255Z,64229.93
2023-08-24T00:04:26.332Z,64243.60
2023-08-24T00:05:28.230Z,64224.19
2023-08-24T00:06:30.236Z,64234.78
2023-08-24T00:07:32.451Z,64249.11
2023-08-24T00:08:34.364Z,64248.78
2023-08-24T00:09:36.282Z,64262.36
2023-08-24T00:10:38.550Z,64258.50
2023-08-24T00:11:40.476Z,64251.00
2023-08-24T00:12:42.473Z,64260.15
2023-08-24T00:13:45.289Z,64245.38
2023-08-24T00:14:47.208Z,64237.64
2023-08-24T00:15:49.202Z,64246.25
2023-08-24T00:16:51.627Z,64248.89
2023-08-24T00:17:53.801Z,64222.11
2023-08-24T00:18:56.155Z,64243.06
2023-08-24T00:19:58.256Z,64249.11
2023-08-24T00:21:00.265Z,64250.88
2023-08-24T00:22:02.948Z,64231.02
2023-08-24T00:23:04.981Z,64234.33
2023-08-24T00:24:07.357Z,64233.79
2023-08-24T00:25:09.953Z,64244.17
2023-08-24T00:26:12.140Z,64244.17
2023-08-24T00:27:14.197Z,64258.59
2023-08-24T00:28:16.106Z,64260.81
2023-08-24T00:29:17.998Z,64264.55
2023-08-24T00:30:20.450Z,64265.66
2023-08-24T00:31:23.458Z,64249.89
2023-08-24T00:32:25.650Z,64255.85
2023-08-24T00:33:27.670Z,64265.66
2023-08-24T00:34:29.587Z,64249.77
2023-08-24T00:35:31.603Z,64242.06
2023-08-24T00:36:33.817Z,64256.30
2023-08-24T00:37:37.441Z,64247.36
2023-08-24T00:38:39.368Z,64247.03
2023-08-24T00:39:41.262Z,64263.46
2023-08-24T00:40:43.731Z,64246.04
2023-08-24T00:41:45.665Z,64252.42
2023-08-24T00:42:47.570Z,64257.39
2023-08-24T00:43:49.467Z,64255.07
2023-08-24T00:44:51.504Z,64236.10
2023-08-24T00:45:57.180Z,64243.72
2023-08-24T00:46:59.713Z,64249.11
2023-08-24T00:48:04.325Z,64248.57
2023-08-24T00:49:06.445Z,64235.23
2023-08-24T00:50:09.594Z,64230.48
2023-08-24T00:51:11.849Z,64233.24
2023-08-24T00:52:14.763Z,64235.89
2023-08-24T00:53:16.791Z,64230.81
2023-08-24T00:54:20.227Z,64233.13
2023-08-24T00:55:22.502Z,64228.37
2023-08-24T00:56:25.161Z,64223.77
2023-08-24T00:57:28.821Z,64234.24
2023-08-24T00:58:32.745Z,64231.47
2023-08-24T00:59:35.020Z,64213.84
2023-08-24T01:00:38.052Z,64217.14
2023-08-24T01:01:43.796Z,64217.24
2023-08-24T01:02:45.880Z,64209.54
2023-08-24T01:03:48.141Z,64223.65
2023-08-24T01:04:50.771Z,64215.49
2023-08-24T01:05:53.693Z,64222.11
2023-08-24T01:06:56.624Z,64211.64
2023-08-24T01:07:58.940Z,64226.41
2023-08-24T01:09:01.287Z,64216.25
2023-08-24T01:10:04.958Z,64228.16
2023-08-24T01:11:16.860Z,64218.89
2023-08-24T01:12:39.274Z,64218.89
2023-08-24T01:14:16.126Z,64211.73
2023-08-24T01:15:21.856Z,64212.73
2023-08-24T01:16:28.392Z,64180.75
2023-08-24T01:17:32.917Z,64190.13
2023-08-24T01:18:38.222Z,64188.38
2023-08-24T01:19:42.896Z,64189.59
2023-08-24T01:20:45.433Z,64196.30
2023-08-24T01:21:48.468Z,64191.34
2023-08-24T01:23:00.336Z,64196.20
2023-08-24T01:24:09.197Z,64193.98
2023-08-24T01:25:26.835Z,64193.44
2023-08-24T01:26:31.282Z,64184.60
2023-08-24T01:27:35.305Z,64186.71
2023-08-24T01:28:38.141Z,64187.79
2023-08-24T01:29:41.278Z,64177.44
2023-08-24T01:30:44.093Z,64177.23
2023-08-24T01:31:49.563Z,64175.22
2023-08-24T01:32:52.763Z,64173.02
2023-08-24T01:33:54.993Z,64174.58
2023-08-24T01:34:56.912Z,64172.36
2023-08-24T01:35:59.037Z,64164.87
2023-08-24T01:37:02.110Z,64168.29
2023-08-24T01:38:04.834Z,64178.98
2023-08-24T01:39:22.585Z,64173.59
2023-08-24T01:40:29.162Z,64177.44
2023-08-24T01:41:35.079Z,64173.14
2023-08-24T01:42:59.097Z,64173.14
2023-08-24T01:44:03.868Z,64169.05
2023-08-24T01:45:08.873Z,64166.41
2023-08-24T01:46:18.195Z,64151.54
2023-08-24T01:47:21.901Z,64163.00
2023-08-24T01:48:27.370Z,64163.66
2023-08-24T01:49:30.718Z,64164.21
2023-08-24T01:50:34.357Z,64160.45
2023-08-24T01:51:37.347Z,64172.81
2023-08-24T01:52:40.429Z,64150.43
2023-08-24T01:53:43.567Z,64156.50
2023-08-24T01:54:47.955Z,64149.32
2023-08-24T01:55:50.008Z,64148.78
2023-08-24T01:56:52.206Z,64153.20
2023-08-24T01:57:56.409Z,64147.90
2023-08-24T01:58:58.497Z,64147.79
2023-08-24T02:00:00.441Z,64136.00
2023-08-24T02:01:03.644Z,64134.46
2023-08-24T02:02:06.662Z,64125.20
2023-08-24T02:03:08.813Z,64134.56
2023-08-24T02:04:11.008Z,64129.50
2023-08-24T02:05:12.921Z,64138.76
2023-08-24T02:06:15.406Z,64138.64
2023-08-24T02:07:17.303Z,64131.91
2023-08-24T02:08:19.327Z,64135.55
2023-08-24T02:09:21.403Z,64125.65
2023-08-24T02:10:24.029Z,64129.50
2023-08-24T02:11:26.043Z,64115.94
2023-08-24T02:12:27.974Z,64121.23
2023-08-24T02:13:30.010Z,64114.07
2023-08-24T02:14:33.957Z,64121.89
2023-08-24T02:15:38.662Z,64083.68
2023-08-24T02:16:40.812Z,64098.54
2023-08-24T02:17:42.867Z,64109.66
2023-08-24T02:18:44.916Z,64107.91
2023-08-24T02:19:46.824Z,64104.16
2023-08-24T02:20:49.043Z,64113.86
2023-08-24T02:21:50.937Z,64112.97
2023-08-24T02:22:53.025Z,64117.83
2023-08-24T02:23:54.903Z,64128.84
2023-08-24T02:24:56.985Z,64123.22
2023-08-24T02:25:58.912Z,64116.84
2023-08-24T02:27:01.737Z,64118.37
2023-08-24T02:28:04.619Z,64115.61
2023-08-24T02:29:07.900Z,64117.83
2023-08-24T02:30:11.454Z,64118.92
2023-08-24T02:31:13.396Z,64117.93
2023-08-24T02:32:15.289Z,64116.72
2023-08-24T02:33:17.310Z,64114.07
2023-08-24T02:34:20.840Z,64115.28
2023-08-24T02:35:22.883Z,64119.13
2023-08-24T02:36:25.652Z,64119.91
2023-08-24T02:37:27.597Z,64114.62
2023-08-24T02:38:30.292Z,64120.69
2023-08-24T02:39:33.437Z,64123.88
2023-08-24T02:40:36.207Z,64120.48
2023-08-24T02:41:39.828Z,64122.77
2023-08-24T02:42:41.794Z,64120.03
2023-08-24T02:43:46.214Z,64117.71
2023-08-24T02:44:48.102Z,64102.72
2023-08-24T02:45:50.163Z,64112.54
2023-08-24T02:46:55.019Z,64114.62
2023-08-24T02:47:57.479Z,64107.46
2023-08-24T02:48:59.492Z,64078.82
2023-08-24T02:50:01.416Z,64078.82
2023-08-24T02:51:05.619Z,64073.64
2023-08-24T02:52:07.651Z,64052.92
2023-08-24T02:53:09.619Z,64036.42
2023-08-24T02:54:11.520Z,64078.39
2023-08-24T02:55:13.591Z,64078.82
2023-08-24T02:56:16.277Z,64078.27
2023-08-24T02:57:18.196Z,64088.29
2023-08-24T02:58:20.654Z,64096.46
2023-08-24T02:59:22.666Z,64095.35
2023-08-24T03:00:24.752Z,64083.78
2023-08-24T03:01:26.922Z,64102.50
2023-08-24T03:02:28.939Z,64098.98
2023-08-24T03:03:30.893Z,64086.00
2023-08-24T03:04:32.797Z,64089.30
2023-08-24T03:05:34.696Z,64085.33
2023-08-24T03:06:36.824Z,64082.69
2023-08-24T03:07:38.748Z,64080.04
2023-08-24T03:08:41.249Z,64088.19
2023-08-24T03:09:43.587Z,64086.66
2023-08-24T03:10:46.243Z,64092.04
2023-08-24T03:11:48.190Z,64100.43
2023-08-24T03:12:50.350Z,64107.79
2023-08-24T03:13:52.370Z,64073.32
2023-08-24T03:14:54.450Z,64065.17
2023-08-24T03:15:57.138Z,64085.33
2023-08-24T03:16:59.389Z,64087.65
2023-08-24T03:18:01.552Z,64077.61
2023-08-24T03:19:03.554Z,64081.46
2023-08-24T03:20:07.489Z,64084.89
2023-08-24T03:21:09.650Z,64084.89
2023-08-24T03:22:11.570Z,64116.84
2023-08-24T03:23:13.702Z,64107.79
2023-08-24T03:24:15.839Z,64106.47
2023-08-24T03:25:17.808Z,64112.87
2023-08-24T03:26:20.250Z,64112.42
2023-08-24T03:27:22.885Z,64118.37
2023-08-24T03:28:24.897Z,64108.57
2023-08-24T03:29:26.935Z,64107.58
2023-08-24T03:30:29.409Z,64092.59
2023-08-24T03:31:31.545Z,64109.12
2023-08-24T03:32:33.841Z,64108.01
2023-08-24T03:33:35.832Z,64104.27
2023-08-24T03:34:37.912Z,64116.84
2023-08-24T03:35:40.727Z,64107.34
2023-08-24T03:36:42.785Z,64098.77
2023-08-24T03:37:44.743Z,64100.75
2023-08-24T03:38:46.948Z,64093.70
2023-08-24T03:39:49.027Z,64105.15
2023-08-24T03:40:51.219Z,64099.64
2023-08-24T03:41:53.261Z,64109.56
2023-08-24T03:42:55.394Z,64112.97
2023-08-24T03:43:57.398Z,64102.18
2023-08-24T03:45:02.602Z,64105.36
2023-08-24T03:46:05.574Z,64102.50
2023-08-24T03:47:09.329Z,64116.84
2023-08-24T03:48:11.422Z,64121.78
2023-08-24T03:49:13.519Z,64123.43
2023-08-24T03:50:17.181Z,64124.75
2023-08-24T03:51:19.324Z,64138.86
2023-08-24T03:52:22.080Z,64136.66
2023-08-24T03:53:24.840Z,64123.43
2023-08-24T03:54:26.882Z,64129.95
2023-08-24T03:55:28.808Z,64118.49
2023-08-24T03:56:30.856Z,64116.27
2023-08-24T03:57:33.821Z,64125.65
2023-08-24T03:58:38.033Z,64120.12
2023-08-24T03:59:40.398Z,64125.20
2023-08-24T04:00:44.323Z,64115.28
2023-08-24T04:01:47.820Z,64125.98
2023-08-24T04:02:49.828Z,64121.14
2023-08-24T04:03:51.828Z,64117.93
2023-08-24T04:04:54.192Z,64102.50
2023-08-24T04:05:56.747Z,64111.31
2023-08-24T04:06:59.035Z,64134.46
2023-08-24T04:08:01.058Z,64138.31
2023-08-24T04:09:05.609Z,64141.74
2023-08-24T04:10:09.022Z,64136.66
2023-08-24T04:11:11.102Z,64155.39
2023-08-24T04:12:13.141Z,64155.39
2023-08-24T04:13:15.694Z,64171.93
2023-08-24T04:14:17.810Z,64178.88
2023-08-24T04:15:21.532Z,64186.28
2023-08-24T04:16:25.732Z,64186.28
2023-08-24T04:17:27.701Z,64185.14
2023-08-24T04:18:29.981Z,64193.98
2023-08-24T04:19:32.324Z,64179.85
2023-08-24T04:20:34.377Z,64195.64
2023-08-24T04:21:36.357Z,64195.09
2023-08-24T04:22:38.643Z,64196.75
2023-08-24T04:23:40.644Z,64191.34
2023-08-24T04:24:42.677Z,64196.75
2023-08-24T04:25:44.586Z,64211.07
2023-08-24T04:26:46.887Z,64205.11
2023-08-24T04:27:49.406Z,64217.80
2023-08-24T04:28:52.430Z,64226.08
2023-08-24T04:29:54.359Z,64230.15
2023-08-24T04:30:58.348Z,64232.92
2023-08-24T04:32:00.491Z,64232.13
2023-08-24T04:33:02.936Z,64238.09
2023-08-24T04:34:04.974Z,64243.60
2023-08-24T04:35:08.502Z,64249.11
2023-08-24T04:36:10.961Z,64224.86
2023-08-24T04:37:12.864Z,64239.75
2023-08-24T04:38:15.573Z,64236.55
2023-08-24T04:39:17.627Z,64238.30
2023-08-24T04:40:21.644Z,64261.36
2023-08-24T04:41:23.675Z,64257.50
2023-08-24T04:42:25.736Z,64264.67
2023-08-24T04:43:27.659Z,64279.45
2023-08-24T04:44:30.750Z,64278.66
2023-08-24T04:45:32.844Z,64267.32
2023-08-24T04:46:34.913Z,64265.87
2023-08-24T04:47:37.708Z,64274.48
2023-08-24T04:48:39.719Z,64297.00
2023-08-24T04:49:41.717Z,64309.71
2023-08-24T04:50:47.314Z,64317.98
2023-08-24T04:51:49.900Z,64310.48
2023-08-24T04:52:51.814Z,64326.93
2023-08-24T04:53:54.478Z,64337.95
2023-08-24T04:54:56.382Z,64340.72
2023-08-24T04:56:00.201Z,64334.64
2023-08-24T04:57:02.340Z,64349.64
2023-08-24T04:58:05.744Z,64358.58
2023-08-24T04:59:07.852Z,64357.04
2023-08-24T05:00:11.273Z,64362.44
2023-08-24T05:01:13.217Z,64395.46
2023-08-24T05:02:15.364Z,64406.06
2023-08-24T05:03:17.378Z,64419.88
2023-08-24T05:04:19.341Z,64423.09
2023-08-24T05:05:21.261Z,64453.47
2023-08-24T05:06:23.485Z,64475.00
2023-08-24T05:07:25.458Z,64489.36
2023-08-24T05:08:27.394Z,64505.28
2023-08-24T05:09:29.393Z,64511.02
2023-08-24T05:10:32.797Z,64528.07
2023-08-24T05:11:34.733Z,64543.08
2023-08-24T05:12:36.685Z,64567.40
2023-08-24T05:13:42.002Z,64584.89
2023-08-24T05:14:44.042Z,64588.41
2023-08-24T05:15:47.606Z,64597.25
2023-08-24T05:16:49.640Z,64612.54
2023-08-24T05:17:53.289Z,64612.54
2023-08-24T05:18:55.473Z,64612.21
2023-08-24T05:19:59.558Z,64644.84
2023-08-24T05:21:01.718Z,64670.18
2023-08-24T05:22:03.772Z,64692.43
2023-08-24T05:23:05.730Z,64712.00
2023-08-24T05:24:08.223Z,64743.35
2023-08-24T05:25:10.255Z,64754.41
2023-08-24T05:26:12.441Z,64772.69
2023-08-24T05:27:16.341Z,64792.07
2023-08-24T05:28:18.311Z,64808.71
2023-08-24T05:29:20.320Z,64821.36
2023-08-24T05:30:22.365Z,64841.28
2023-08-24T05:31:24.870Z,64861.89
2023-08-24T05:32:26.821Z,64888.96
2023-08-24T05:33:28.752Z,64892.92
2023-08-24T05:34:30.816Z,64859.11
2023-08-24T05:35:32.737Z,64898.66
2023-08-24T05:36:35.058Z,64920.08
2023-08-24T05:37:38.444Z,64921.09
2023-08-24T05:38:51.339Z,64942.44
2023-08-24T05:39:44.660Z,64972.78
2023-08-24T05:40:50.189Z,64989.87
2023-08-24T05:41:53.166Z,64993.84
2023-08-24T05:42:55.206Z,65013.80
2023-08-24T05:43:57.166Z,65022.67
2023-08-24T05:44:59.168Z,65032.19
2023-08-24T05:46:01.208Z,65052.19
2023-08-24T05:47:03.612Z,65072.63
2023-08-24T05:48:07.178Z,65080.40
2023-08-24T05:49:09.692Z,65100.00
2023-08-24T05:50:12.129Z,65122.11
2023-08-24T05:51:14.566Z,65127.22
2023-08-24T05:52:17.546Z,65127.22
2023-08-24T05:53:19.485Z,65143.86
2023-08-24T05:54:21.554Z,65092.69
2023-08-24T05:55:23.609Z,65021.57
2023-08-24T05:56:25.873Z,65041.53
2023-08-24T05:57:27.820Z,65004.01
2023-08-24T05:58:30.087Z,65009.55
2023-08-24T05:59:33.836Z,65058.38
2023-08-24T06:00:35.998Z,65108.33
2023-08-24T06:01:39.175Z,65140.55
2023-08-24T06:02:41.521Z,65137.02
2023-08-24T06:03:43.694Z,65063.93
2023-08-24T06:04:45.789Z,65072.63
2023-08-24T06:05:47.712Z,65116.09
2023-08-24T06:06:49.738Z,65162.74
2023-08-24T06:07:51.995Z,65188.29
2023-08-24T06:08:55.368Z,65224.32
2023-08-24T06:09:57.722Z,65244.40
2023-08-24T06:10:59.864Z,65258.93
2023-08-24T06:12:01.928Z,65283.70
2023-08-24T06:13:03.976Z,65289.62
2023-08-24T06:14:07.561Z,65242.18
2023-08-24T06:15:09.891Z,65242.18
2023-08-24T06:16:13.229Z,65276.65
2023-08-24T06:17:15.732Z,65209.41
2023-08-24T06:18:18.758Z,65245.52
2023-08-24T06:19:21.214Z,65282.78
2023-08-24T06:20:23.245Z,65276.01
2023-08-24T06:21:26.807Z,65219.51
2023-08-24T06:22:29.560Z,65185.43
2023-08-24T06:23:33.382Z,65154.98
2023-08-24T06:24:36.717Z,65144.43
2023-08-24T06:25:38.867Z,65168.31
2023-08-24T06:26:40.971Z,65196.17
2023-08-24T06:27:42.864Z,65126.11
2023-08-24T06:28:45.035Z,65156.64
2023-08-24T06:29:46.977Z,65209.41
2023-08-24T06:30:49.100Z,65251.54
2023-08-24T06:31:51.031Z,65254.50
2023-08-24T06:32:54.004Z,65312.14
2023-08-24T06:33:56.136Z,65326.75
2023-08-24T06:35:00.227Z,65271.63
2023-08-24T06:36:03.932Z,65154.98
2023-08-24T06:37:05.901Z,65194.96
2023-08-24T06:38:09.853Z,65272.18
2023-08-24T06:39:11.766Z,65319.45
2023-08-24T06:40:14.247Z,65341.67
2023-08-24T06:41:16.507Z,65252.73
2023-08-24T06:42:18.420Z,65222.00
2023-08-24T06:43:20.531Z,65199.98
2023-08-24T06:44:23.611Z,65229.32
2023-08-24T06:45:25.769Z,65234.96
2023-08-24T06:46:29.440Z,65304.54
2023-08-24T06:47:31.445Z,65339.45
2023-08-24T06:48:34.282Z,65345.01
2023-08-24T06:49:36.173Z,65373.95
2023-08-24T06:50:39.402Z,65344.36
2023-08-24T06:51:41.515Z,65338.98
2023-08-24T06:52:43.413Z,65309.27
2023-08-24T06:53:47.011Z,65304.61
2023-08-24T06:54:48.922Z,65308.80
2023-08-24T06:55:57.659Z,65248.21
2023-08-24T06:56:59.781Z,65295.00
2023-08-24T06:58:01.711Z,65263.21
2023-08-24T06:59:03.709Z,65289.90
2023-08-24T07:00:07.603Z,65298.79
2023-08-24T07:01:10.618Z,65326.58
2023-08-24T07:02:13.013Z,65272.75
2023-08-24T07:03:17.428Z,65318.34
2023-08-24T07:04:19.468Z,65284.99
2023-08-24T07:05:24.050Z,65315.00
2023-08-24T07:06:26.334Z,65242.73
2023-08-24T07:07:28.247Z,65206.07
2023-08-24T07:08:30.248Z,65248.30
2023-08-24T07:09:32.263Z,65262.27
2023-08-24T07:10:34.982Z,65283.40
2023-08-24T07:11:36.907Z,65345.22
2023-08-24T07:12:39.369Z,65366.17
2023-08-24T07:13:41.280Z,65312.78
2023-08-24T07:14:43.197Z,65312.23
2023-08-24T07:15:45.162Z,65302.30
2023-08-24T07:16:47.250Z,65272.75
2023-08-24T07:17:49.659Z,65298.32
2023-08-24T07:18:53.187Z,65306.49
2023-08-24T07:19:55.193Z,65280.09
2023-08-24T07:20:58.038Z,65350.61
2023-08-24T07:21:59.948Z,65380.79
2023-08-24T07:23:03.845Z,65274.44
2023-08-24T07:24:06.764Z,65293.88
2023-08-24T07:25:09.435Z,65234.41
2023-08-24T07:26:13.164Z,65162.19
2023-08-24T07:27:15.091Z,65218.77
2023-08-24T07:28:16.999Z,65267.20
2023-08-24T07:29:20.302Z,65344.36
2023-08-24T07:30:31.160Z,65349.48
2023-08-24T07:31:27.299Z,65295.00
2023-08-24T07:32:29.510Z,65323.89
2023-08-24T07:33:31.490Z,65282.78
2023-08-24T07:34:33.457Z,65282.21
2023-08-24T07:35:35.361Z,65237.11
2023-08-24T07:36:38.898Z,65254.50
2023-08-24T07:37:40.910Z,65310.56
2023-08-24T07:38:42.828Z,65348.94
2023-08-24T07:39:44.846Z,65353.46
2023-08-24T07:40:46.954Z,65326.12
2023-08-24T07:41:49.772Z,65329.37
2023-08-24T07:42:53.799Z,65306.75
2023-08-24T07:43:55.782Z,65340.02
2023-08-24T07:44:58.454Z,65253.31
2023-08-24T07:46:00.428Z,65317.31
2023-08-24T07:47:02.728Z,65252.57
2023-08-24T07:48:06.109Z,65275.54
2023-08-24T07:49:08.298Z,65303.80
2023-08-24T07:50:11.488Z,65191.62
2023-08-24T07:51:13.544Z,65244.23
2023-08-24T07:52:15.792Z,65247.83
2023-08-24T07:53:17.724Z,65281.56
2023-08-24T07:54:19.740Z,65318.88
2023-08-24T07:55:22.027Z,65338.36
2023-08-24T07:56:24.410Z,65327.22
2023-08-24T07:57:28.032Z,65345.22
2023-08-24T07:58:29.965Z,65240.52
2023-08-24T07:59:32.114Z,65214.96
2023-08-24T08:00:34.403Z,65249.87
2023-08-24T08:01:36.732Z,65304.54
2023-08-24T08:02:39.169Z,65331.04
2023-08-24T08:03:41.707Z,65345.48
2023-08-24T08:04:44.708Z,65335.47
2023-08-24T08:05:47.491Z,65324.36
2023-08-24T08:06:49.876Z,65352.82
2023-08-24T08:07:52.365Z,65347.91
2023-08-24T08:08:54.617Z,65355.04
2023-08-24T08:09:56.633Z,65306.11
2023-08-24T08:11:00.400Z,65360.60
2023-08-24T08:12:02.706Z,65375.23
2023-08-24T08:13:04.849Z,65390.16
2023-08-24T08:14:06.976Z,65260.43
2023-08-24T08:15:09.760Z,65251.64
2023-08-24T08:16:12.726Z,65339.38
2023-08-24T08:17:16.265Z,65356.23
2023-08-24T08:18:18.363Z,65390.54
2023-08-24T08:19:20.580Z,65347.82
2023-08-24T08:20:22.722Z,65269.89
2023-08-24T08:21:25.143Z,65276.11
2023-08-24T08:22:28.927Z,65276.11
2023-08-24T08:23:31.053Z,65274.51
2023-08-24T08:24:33.939Z,65299.36
2023-08-24T08:25:35.856Z,65278.87
2023-08-24T08:26:37.892Z,65226.08
2023-08-24T08:27:39.818Z,65313.42
2023-08-24T08:28:42.061Z,65368.39
2023-08-24T08:29:44.247Z,65379.60
2023-08-24T08:30:48.718Z,65367.84
2023-08-24T08:31:50.882Z,65308.97
2023-08-24T08:32:52.938Z,65281.18
2023-08-24T08:33:57.288Z,65256.71
2023-08-24T08:35:00.130Z,65314.45
2023-08-24T08:36:02.701Z,65359.50
2023-08-24T08:37:04.693Z,65351.70
2023-08-24T08:38:07.198Z,65263.29
2023-08-24T08:39:09.155Z,65292.21
2023-08-24T08:40:12.444Z,65300.55
2023-08-24T08:41:17.292Z,65268.77
2023-08-24T08:42:20.058Z,65260.53
2023-08-24T08:43:23.066Z,65277.68
2023-08-24T08:44:28.734Z,65277.20
2023-08-24T08:45:31.178Z,65309.44
2023-08-24T08:46:33.619Z,65347.91
2023-08-24T08:47:36.131Z,65379.50
2023-08-24T08:48:41.834Z,65405.73
2023-08-24T08:49:45.554Z,65402.39
2023-08-24T08:50:49.661Z,65413.34
2023-08-24T08:51:53.328Z,65382.46
2023-08-24T08:52:56.739Z,65376.74
2023-08-24T08:53:58.686Z,65381.10
2023-08-24T08:55:01.399Z,65391.74
2023-08-24T08:56:04.655Z,65390.64
2023-08-24T08:57:08.447Z,65345.22
2023-08-24T08:58:11.383Z,65251.07
2023-08-24T08:59:17.026Z,65324.91
2023-08-24T09:00:19.726Z,65356.16
2023-08-24T09:01:22.702Z,65355.13
2023-08-24T09:02:25.213Z,65280.54
2023-08-24T09:03:31.101Z,65333.90
2023-08-24T09:04:34.285Z,65333.90
2023-08-24T09:05:39.015Z,65381.27
2023-08-24T09:06:42.854Z,65399.53
2023-08-24T09:07:45.440Z,65377.38
2023-08-24T09:08:50.058Z,65319.91
2023-08-24T09:09:53.234Z,65363.93
2023-08-24T09:10:55.966Z,65378.41
2023-08-24T09:11:58.571Z,65335.66
2023-08-24T09:13:01.053Z,65304.99
2023-08-24T09:14:02.970Z,65350.04
2023-08-24T09:15:07.009Z,65338.36
2023-08-24T09:16:09.477Z,65338.36
2023-08-24T09:17:22.419Z,65363.93
2023-08-24T09:18:28.854Z,65326.84
2023-08-24T09:19:33.661Z,65309.35
2023-08-24T09:20:36.187Z,65316.66
2023-08-24T09:21:39.853Z,65272.18
2023-08-24T09:22:43.214Z,65262.74
2023-08-24T09:23:53.316Z,65251.64
2023-08-24T09:24:55.426Z,65237.65
2023-08-24T09:25:57.560Z,65177.74
2023-08-24T09:27:02.455Z,65168.21
2023-08-24T09:28:07.346Z,65200.52
2023-08-24T09:29:14.989Z,65153.86
2023-08-24T09:30:17.574Z,65187.17
2023-08-24T09:31:19.717Z,65185.90
2023-08-24T09:32:23.036Z,65202.19
2023-08-24T09:33:25.045Z,65222.84
2023-08-24T09:34:27.199Z,65233.85
2023-08-24T09:35:30.615Z,65216.62
2023-08-24T09:36:35.048Z,65211.65
2023-08-24T09:37:37.851Z,65223.94
2023-08-24T09:38:48.769Z,65219.32
2023-08-24T09:39:54.499Z,65255.43
2023-08-24T09:40:58.368Z,65274.32
2023-08-24T09:42:01.991Z,65295.00
2023-08-24T09:43:04.025Z,65298.32
2023-08-24T09:44:07.276Z,65351.06
2023-08-24T09:45:14.108Z,65363.48
2023-08-24T09:46:23.182Z,65381.91
2023-08-24T09:47:25.613Z,65413.98
2023-08-24T09:48:30.020Z,65421.23
2023-08-24T09:49:32.149Z,65437.45
2023-08-24T09:50:35.398Z,65421.97
2023-08-24T09:51:39.441Z,65434.11
2023-08-24T09:52:43.051Z,65428.46
2023-08-24T09:53:46.230Z,65408.43
2023-08-24T09:54:50.825Z,65334.28
2023-08-24T09:56:01.364Z,65254.50
2023-08-24T09:57:06.393Z,65260.53
2023-08-24T09:58:10.455Z,65302.22
2023-08-24T09:59:17.996Z,65297.22
2023-08-24T10:00:20.575Z,65244.40
2023-08-24T10:01:25.026Z,65273.32
2023-08-24T10:02:30.680Z,65284.99
2023-08-24T10:03:34.681Z,65242.73
2023-08-24T10:04:38.515Z,65278.87
2023-08-24T10:05:52.127Z,65329.27
2023-08-24T10:06:50.041Z,65320.55
2023-08-24T10:07:55.434Z,65315.00
2023-08-24T10:09:01.472Z,65298.15
2023-08-24T10:10:06.483Z,65324.91
2023-08-24T10:11:11.569Z,65346.79
2023-08-24T10:12:17.215Z,65373.95
2023-08-24T10:13:22.963Z,65341.88
2023-08-24T10:14:34.886Z,65317.79
2023-08-24T10:15:39.373Z,65302.77
2023-08-24T10:16:44.904Z,65291.66
2023-08-24T10:17:48.580Z,65287.21
2023-08-24T10:18:53.392Z,65290.55
2023-08-24T10:19:57.449Z,65276.75
2023-08-24T10:21:01.173Z,65291.09
2023-08-24T10:22:04.036Z,65288.97
2023-08-24T10:23:06.781Z,65323.98
2023-08-24T10:24:09.264Z,65308.97
2023-08-24T10:25:12.081Z,65302.77
2023-08-24T10:26:17.261Z,65318.34
2023-08-24T10:27:23.382Z,65325.56
2023-08-24T10:28:28.296Z,65291.09
2023-08-24T10:29:31.370Z,65317.21
2023-08-24T10:30:36.558Z,65321.58
2023-08-24T10:31:41.869Z,65345.22
2023-08-24T10:32:45.888Z,65343.43
2023-08-24T10:33:50.692Z,65348.37
2023-08-24T10:34:53.872Z,65339.45
2023-08-24T10:35:56.946Z,65346.13
2023-08-24T10:37:08.614Z,65353.95
2023-08-24T10:38:25.692Z,65396.74
2023-08-24T10:39:28.968Z,65367.27
2023-08-24T10:40:37.436Z,65404.54
2023-08-24T10:41:53.828Z,65343.82
2023-08-24T10:42:56.035Z,65323.34
2023-08-24T10:44:07.815Z,65350.61
2023-08-24T10:45:14.986Z,65388.97
2023-08-24T10:46:17.354Z,65340.02
2023-08-24T10:47:24.642Z,65345.77
2023-08-24T10:48:33.288Z,65379.60
2023-08-24T10:49:35.374Z,65431.80
2023-08-24T10:50:40.376Z,65457.95
2023-08-24T10:51:45.765Z,65460.10
2023-08-24T10:52:47.845Z,65465.91
2023-08-24T10:53:55.972Z,65465.20
2023-08-24T10:55:04.460Z,65479.82
2023-08-24T10:56:14.524Z,65467.03
2023-08-24T10:57:27.622Z,65391.74
2023-08-24T10:58:33.404Z,65386.18
2023-08-24T10:59:49.365Z,65422.90
2023-08-24T11:00:40.603Z,65415.11
2023-08-24T11:01:45.304Z,65431.16
2023-08-24T11:02:51.824Z,65415.29
2023-08-24T11:03:58.921Z,65406.37
2023-08-24T11:05:09.839Z,65423.07
2023-08-24T11:06:19.519Z,65428.64
2023-08-24T11:07:21.768Z,65422.90
2023-08-24T11:08:50.504Z,65466.94
2023-08-24T11:09:53.176Z,65433.66
2023-08-24T11:10:55.303Z,65400.08
2023-08-24T11:12:02.507Z,65449.62
2023-08-24T11:13:07.826Z,65403.42
2023-08-24T11:14:20.763Z,65353.95
2023-08-24T11:16:46.914Z,65447.38
2023-08-24T11:17:52.716Z,65416.78
2023-08-24T11:18:55.240Z,65356.54
2023-08-24T11:19:57.661Z,65365.70
2023-08-24T11:21:05.975Z,65390.64
2023-08-24T11:22:09.920Z,65367.91
2023-08-24T11:23:13.661Z,65410.10
2023-08-24T11:24:17.086Z,65431.89
2023-08-24T11:25:19.570Z,65425.95
2023-08-24T11:26:21.574Z,65447.38
2023-08-24T11:27:24.141Z,65401.20
2023-08-24T11:28:28.072Z,65438.96
2023-08-24T11:29:30.139Z,65417.80
2023-08-24T11:30:32.835Z,65452.55
2023-08-24T11:31:36.203Z,65396.36
2023-08-24T11:32:38.585Z,65429.03
2023-08-24T11:33:41.631Z,65407.88
2023-08-24T11:34:43.567Z,65375.62
2023-08-24T11:35:46.970Z,65379.50
2023-08-24T11:36:50.681Z,65374.59
2023-08-24T11:37:53.545Z,65411.13
2023-08-24T11:39:00.768Z,65349.96
2023-08-24T11:40:03.614Z,65300.55
2023-08-24T11:41:17.043Z,65304.44
2023-08-24T11:42:19.199Z,65330.56
2023-08-24T11:43:25.892Z,65327.77
2023-08-24T11:44:30.074Z,65354.11
2023-08-24T11:45:37.522Z,65372.66
2023-08-24T11:46:39.772Z,65377.29
2023-08-24T11:47:43.017Z,65372.28
2023-08-24T11:48:46.016Z,65357.19
2023-08-24T11:49:49.814Z,65361.71
2023-08-24T11:50:52.304Z,65363.93
2023-08-24T11:51:54.974Z,65366.17
2023-08-24T11:52:57.473Z,65330.56
2023-08-24T11:53:59.899Z,65364.41
2023-08-24T11:55:03.622Z,65378.31
2023-08-24T11:56:08.817Z,65366.17
2023-08-24T11:57:10.772Z,65380.63
2023-08-24T11:58:16.338Z,65342.24
2023-08-24T11:59:19.426Z,65362.45
2023-08-24T12:00:22.682Z,65328.34
2023-08-24T12:01:26.443Z,65329.44
2023-08-24T12:02:29.913Z,65343.74
2023-08-24T12:03:32.924Z,65373.47
2023-08-24T12:04:40.642Z,65399.53
2023-08-24T12:05:42.828Z,65385.70
2023-08-24T12:06:45.045Z,65403.42
2023-08-24T12:07:47.223Z,65415.02
2023-08-24T12:08:49.252Z,65421.80
2023-08-24T12:09:52.046Z,65388.59
2023-08-24T12:10:54.430Z,65361.71
2023-08-24T12:11:56.474Z,65379.60
2023-08-24T12:13:07.162Z,65389.61
2023-08-24T12:14:13.064Z,65362.84
2023-08-24T12:15:19.761Z,65397.77
2023-08-24T12:16:23.071Z,65412.41
2023-08-24T12:17:25.226Z,65412.15
2023-08-24T12:18:27.557Z,65401.27
2023-08-24T12:19:29.606Z,65403.33
2023-08-24T12:20:32.336Z,65441.91
2023-08-24T12:21:35.784Z,65441.91
2023-08-24T12:22:37.702Z,65449.62
2023-08-24T12:23:39.776Z,65464.63
2023-08-24T12:24:46.364Z,65486.34
2023-08-24T12:25:52.157Z,65453.67